Pine Valley, Texas
Current Conditions -  °F | °C
As of 3:53 AM on Sunday 21 Dec 2014 (Local Time) from KLFK Reporting Station
Haze Haze  
Wind Chill: 43°   Ceiling: 3300
Heat Index: 43°   Visibility: 3mi
Dew Point: 39°   Wind: 0mph
Humidity: 86%   Direction: NA
Pressure: 30.15"   Gusts: NA
Location:  31.1753°N, 94.7371°W
Report Text: KLFK 210953Z AUTO 00000KT 3SM BR BKN033 06/04 A3015 RMK AO2 SLP208 T00610039
Loading
Personal Weather Stations






























Interactive Weather Map New forecast layout! Learn more

10-Day Weather Forecast

Advertisements
Track Severe Weather on mobile